sensor_id;sensor_type;location;lat;lon;timestamp;pressure;altitude;pressure_sealevel;temperature;humidity
47726;BME280;33483;48.294;16.388;2022-09-09T00:04:04;99414.22;;;16.13;100.00
47726;BME280;33483;48.294;16.388;2022-09-09T00:09:19;99420.34;;;16.19;100.00
47726;BME280;33483;48.294;16.388;2022-09-09T00:11:51;99416.81;;;16.18;100.00
47726;BME280;33483;48.294;16.388;2022-09-09T00:14:25;99419.38;;;16.24;100.00
47726;BME280;33483;48.294;16.388;2022-09-09T00:17:01;99416.97;;;16.20;100.00
47726;BME280;33483;48.294;16.388;2022-09-09T00:19:39;99420.16;;;16.17;100.00
47726;BME280;33483;48.294;16.388;2022-09-09T00:22:20;99417.25;;;16.07;100.00
47726;BME280;33483;48.294;16.388;2022-09-09T00:24:52;99420.09;;;16.00;100.00
47726;BME280;33483;48.294;16.388;2022-09-09T00:27:50;99414.16;;;15.96;100.00
47726;BME280;33483;48.294;16.388;2022-09-09T00:30:20;99415.47;;;15.95;100.00
47726;BME280;33483;48.294;16.388;2022-09-09T00:32:53;99413.25;;;15.93;100.00
47726;BME280;33483;48.294;16.388;2022-09-09T00:35:38;99406.56;;;15.89;100.00
47726;BME280;33483;48.294;16.388;2022-09-09T00:38:14;99412.72;;;15.87;100.00
47726;BME280;33483;48.294;16.388;2022-09-09T00:40:45;99407.34;;;15.82;100.00
47726;BME280;33483;48.294;16.388;2022-09-09T00:43:29;99408.47;;;15.78;100.00
47726;BME280;33483;48.294;16.388;2022-09-09T00:51:15;99408.88;;;15.75;100.00
47726;BME280;33483;48.294;16.388;2022-09-09T00:56:31;99407.78;;;15.70;100.00
47726;BME280;33483;48.294;16.388;2022-09-09T01:01:54;99418.03;;;15.68;100.00
47726;BME280;33483;48.294;16.388;2022-09-09T01:04:29;99417.13;;;15.65;100.00
47726;BME280;33483;48.294;16.388;2022-09-09T01:07:03;99413.78;;;15.59;100.00
47726;BME280;33483;48.294;16.388;2022-09-09T01:09:45;99418.81;;;15.53;100.00
47726;BME280;33483;48.294;16.388;2022-09-09T01:12:31;99419.78;;;15.48;100.00
47726;BME280;33483;48.294;16.388;2022-09-09T01:17:32;99425.03;;;15.44;100.00
47726;BME280;33483;48.294;16.388;2022-09-09T01:28:14;99428.38;;;15.28;100.00
47726;BME280;33483;48.294;16.388;2022-09-09T01:30:43;99433.25;;;15.20;100.00
47726;BME280;33483;48.294;16.388;2022-09-09T01:33:15;99440.13;;;15.19;100.00
47726;BME280;33483;48.294;16.388;2022-09-09T01:38:09;99436.63;;;15.18;100.00
47726;BME280;33483;48.294;16.388;2022-09-09T01:40:37;99440.50;;;15.15;100.00
47726;BME280;33483;48.294;16.388;2022-09-09T01:43:04;99439.03;;;15.14;100.00
47726;BME280;33483;48.294;16.388;2022-09-09T01:45:36;99445.75;;;15.11;100.00
47726;BME280;33483;48.294;16.388;2022-09-09T01:48:05;99439.41;;;15.11;100.00
47726;BME280;33483;48.294;16.388;2022-09-09T01:50:51;99441.81;;;15.14;100.00
47726;BME280;33483;48.294;16.388;2022-09-09T01:53:19;99441.44;;;15.10;100.00
47726;BME280;33483;48.294;16.388;2022-09-09T01:56:26;99442.03;;;15.09;100.00
47726;BME280;33483;48.294;16.388;2022-09-09T01:59:03;99441.06;;;15.14;100.00
47726;BME280;33483;48.294;16.388;2022-09-09T02:04:00;99444.44;;;15.12;100.00
47726;BME280;33483;48.294;16.388;2022-09-09T02:06:30;99436.81;;;15.13;100.00
47726;BME280;33483;48.294;16.388;2022-09-09T02:09:10;99435.88;;;15.10;100.00
47726;BME280;33483;48.294;16.388;2022-09-09T02:11:40;99437.75;;;15.08;100.00
47726;BME280;33483;48.294;16.388;2022-09-09T02:14:25;99433.66;;;15.09;100.00
47726;BME280;33483;48.294;16.388;2022-09-09T02:16:55;99428.44;;;15.05;100.00
47726;BME280;33483;48.294;16.388;2022-09-09T02:19:32;99428.44;;;15.05;100.00
47726;BME280;33483;48.294;16.388;2022-09-09T02:22:19;99425.84;;;15.07;100.00
47726;BME280;33483;48.294;16.388;2022-09-09T02:24:54;99424.00;;;15.02;100.00
47726;BME280;33483;48.294;16.388;2022-09-09T02:27:28;99429.38;;;15.00;100.00
47726;BME280;33483;48.294;16.388;2022-09-09T02:29:57;99430.31;;;14.95;100.00
47726;BME280;33483;48.294;16.388;2022-09-09T02:32:39;99428.09;;;14.94;100.00
47726;BME280;33483;48.294;16.388;2022-09-09T02:35:11;99422.53;;;14.94;100.00
47726;BME280;33483;48.294;16.388;2022-09-09T02:37:41;99420.28;;;14.92;100.00
47726;BME280;33483;48.294;16.388;2022-09-09T02:40:12;99434.25;;;14.92;100.00
47726;BME280;33483;48.294;16.388;2022-09-09T02:42:46;99428.84;;;14.87;100.00
47726;BME280;33483;48.294;16.388;2022-09-09T02:45:20;99441.31;;;14.86;100.00
47726;BME280;33483;48.294;16.388;2022-09-09T02:47:51;99437.59;;;14.83;100.00
47726;BME280;33483;48.294;16.388;2022-09-09T02:50:30;99448.19;;;14.62;100.00
47726;BME280;33483;48.294;16.388;2022-09-09T02:58:13;99439.63;;;14.37;100.00
47726;BME280;33483;48.294;16.388;2022-09-09T03:00:51;99447.63;;;14.41;100.00
47726;BME280;33483;48.294;16.388;2022-09-09T03:03:22;99438.72;;;14.50;100.00
47726;BME280;33483;48.294;16.388;2022-09-09T03:05:51;99447.25;;;14.44;100.00
47726;BME280;33483;48.294;16.388;2022-09-09T03:08:18;99453.56;;;14.37;100.00
47726;BME280;33483;48.294;16.388;2022-09-09T03:10:47;99460.78;;;14.25;100.00
47726;BME280;33483;48.294;16.388;2022-09-09T03:13:14;99460.38;;;14.06;100.00
47726;BME280;33483;48.294;16.388;2022-09-09T03:15:45;99456.06;;;14.05;100.00
47726;BME280;33483;48.294;16.388;2022-09-09T03:18:18;99459.94;;;13.87;100.00
47726;BME280;33483;48.294;16.388;2022-09-09T03:20:49;99452.88;;;13.86;100.00
47726;BME280;33483;48.294;16.388;2022-09-09T03:23:17;99452.25;;;13.73;100.00
47726;BME280;33483;48.294;16.388;2022-09-09T03:25:51;99449.69;;;13.75;100.00
47726;BME280;33483;48.294;16.388;2022-09-09T03:28:25;99456.19;;;13.77;100.00
47726;BME280;33483;48.294;16.388;2022-09-09T03:31:00;99451.50;;;13.72;100.00
47726;BME280;33483;48.294;16.388;2022-09-09T03:33:32;99456.13;;;13.62;100.00
47726;BME280;33483;48.294;16.388;2022-09-09T03:36:02;99454.25;;;13.57;100.00
47726;BME280;33483;48.294;16.388;2022-09-09T03:38:32;99452.41;;;13.60;100.00
47726;BME280;33483;48.294;16.388;2022-09-09T03:41:02;99446.81;;;13.52;100.00
47726;BME280;33483;48.294;16.388;2022-09-09T03:43:29;99448.13;;;13.58;100.00
47726;BME280;33483;48.294;16.388;2022-09-09T03:45:57;99447.41;;;13.58;100.00
47726;BME280;33483;48.294;16.388;2022-09-09T03:48:26;99441.59;;;13.48;100.00
47726;BME280;33483;48.294;16.388;2022-09-09T03:50:57;99432.47;;;13.40;100.00
47726;BME280;33483;48.294;16.388;2022-09-09T03:53:29;99439.50;;;13.41;100.00
47726;BME280;33483;48.294;16.388;2022-09-09T03:55:56;99443.41;;;13.38;100.00
47726;BME280;33483;48.294;16.388;2022-09-09T03:58:27;99439.25;;;13.32;100.00
47726;BME280;33483;48.294;16.388;2022-09-09T04:01:01;99440.38;;;13.29;100.00
47726;BME280;33483;48.294;16.388;2022-09-09T04:03:29;99438.69;;;13.26;100.00
47726;BME280;33483;48.294;16.388;2022-09-09T04:05:56;99445.56;;;13.25;100.00
47726;BME280;33483;48.294;16.388;2022-09-09T04:08:26;99442.53;;;13.15;100.00
47726;BME280;33483;48.294;16.388;2022-09-09T04:10:54;99451.72;;;13.03;100.00
47726;BME280;33483;48.294;16.388;2022-09-09T04:13:26;99462.97;;;12.97;100.00
47726;BME280;33483;48.294;16.388;2022-09-09T04:15:56;99465.69;;;12.90;100.00
47726;BME280;33483;48.294;16.388;2022-09-09T04:18:24;99457.09;;;12.80;100.00
47726;BME280;33483;48.294;16.388;2022-09-09T04:20:51;99451.72;;;12.82;100.00
47726;BME280;33483;48.294;16.388;2022-09-09T04:23:22;99456.34;;;12.80;100.00
47726;BME280;33483;48.294;16.388;2022-09-09T04:25:51;99459.66;;;12.78;100.00
47726;BME280;33483;48.294;16.388;2022-09-09T04:28:23;99458.88;;;12.70;100.00
47726;BME280;33483;48.294;16.388;2022-09-09T04:30:50;99452.91;;;12.66;100.00
47726;BME280;33483;48.294;16.388;2022-09-09T04:33:19;99450.72;;;12.72;100.00
47726;BME280;33483;48.294;16.388;2022-09-09T04:35:48;99460.63;;;12.81;100.00
47726;BME280;33483;48.294;16.388;2022-09-09T04:38:17;99460.53;;;12.94;100.00
47726;BME280;33483;48.294;16.388;2022-09-09T04:40:58;99464.59;;;12.93;100.00
47726;BME280;33483;48.294;16.388;2022-09-09T04:44:02;99464.50;;;12.78;100.00
47726;BME280;33483;48.294;16.388;2022-09-09T04:46:47;99467.28;;;12.78;100.00
47726;BME280;33483;48.294;16.388;2022-09-09T04:49:14;99467.47;;;12.80;100.00
47726;BME280;33483;48.294;16.388;2022-09-09T04:51:42;99477.31;;;12.81;100.00
47726;BME280;33483;48.294;16.388;2022-09-09T04:54:09;99489.44;;;12.91;100.00
47726;BME280;33483;48.294;16.388;2022-09-09T04:56:40;99488.34;;;12.94;100.00
47726;BME280;33483;48.294;16.388;2022-09-09T04:59:11;99490.41;;;12.93;100.00
47726;BME280;33483;48.294;16.388;2022-09-09T05:01:48;99487.34;;;13.04;100.00
47726;BME280;33483;48.294;16.388;2022-09-09T05:04:18;99478.63;;;13.08;100.00
47726;BME280;33483;48.294;16.388;2022-09-09T05:06:46;99483.84;;;13.11;100.00
47726;BME280;33483;48.294;16.388;2022-09-09T05:09:13;99485.56;;;13.14;100.00
47726;BME280;33483;48.294;16.388;2022-09-09T05:11:40;99491.72;;;13.20;100.00
47726;BME280;33483;48.294;16.388;2022-09-09T05:14:17;99496.09;;;13.36;100.00
47726;BME280;33483;48.294;16.388;2022-09-09T05:16:44;99493.53;;;13.46;100.00
47726;BME280;33483;48.294;16.388;2022-09-09T05:19:11;99497.00;;;13.39;100.00
47726;BME280;33483;48.294;16.388;2022-09-09T05:21:47;99502.75;;;13.33;100.00
47726;BME280;33483;48.294;16.388;2022-09-09T05:24:17;99498.03;;;13.49;100.00
47726;BME280;33483;48.294;16.388;2022-09-09T05:26:46;99500.56;;;13.83;100.00
47726;BME280;33483;48.294;16.388;2022-09-09T05:29:13;99495.41;;;13.87;100.00
47726;BME280;33483;48.294;16.388;2022-09-09T05:31:40;99495.44;;;13.94;100.00
47726;BME280;33483;48.294;16.388;2022-09-09T05:34:14;99497.44;;;14.37;100.00
47726;BME280;33483;48.294;16.388;2022-09-09T05:36:44;99502.09;;;14.34;100.00
47726;BME280;33483;48.294;16.388;2022-09-09T05:39:11;99510.19;;;14.25;100.00
47726;BME280;33483;48.294;16.388;2022-09-09T05:41:38;99508.75;;;14.31;100.00
47726;BME280;33483;48.294;16.388;2022-09-09T05:44:07;99512.16;;;14.52;100.00
47726;BME280;33483;48.294;16.388;2022-09-09T05:46:37;99510.69;;;14.74;100.00
47726;BME280;33483;48.294;16.388;2022-09-09T05:49:05;99513.47;;;14.74;100.00
47726;BME280;33483;48.294;16.388;2022-09-09T05:51:33;99499.16;;;14.85;100.00
47726;BME280;33483;48.294;16.388;2022-09-09T05:54:10;99492.06;;;15.22;100.00
47726;BME280;33483;48.294;16.388;2022-09-09T05:56:42;99499.69;;;15.51;100.00
47726;BME280;33483;48.294;16.388;2022-09-09T05:59:09;99497.38;;;15.72;100.00
47726;BME280;33483;48.294;16.388;2022-09-09T06:01:38;99509.84;;;15.71;100.00
47726;BME280;33483;48.294;16.388;2022-09-09T06:04:11;99505.00;;;15.72;100.00
47726;BME280;33483;48.294;16.388;2022-09-09T06:06:40;99508.50;;;15.88;100.00
47726;BME280;33483;48.294;16.388;2022-09-09T06:09:15;99513.31;;;15.95;100.00
47726;BME280;33483;48.294;16.388;2022-09-09T06:11:42;99512.94;;;15.91;100.00
47726;BME280;33483;48.294;16.388;2022-09-09T06:14:13;99510.53;;;15.87;100.00
47726;BME280;33483;48.294;16.388;2022-09-09T06:16:43;99491.91;;;15.90;100.00
47726;BME280;33483;48.294;16.388;2022-09-09T06:19:16;99490.97;;;15.87;100.00
47726;BME280;33483;48.294;16.388;2022-09-09T06:21:43;99492.66;;;15.83;100.00
47726;BME280;33483;48.294;16.388;2022-09-09T06:24:12;99500.63;;;15.94;100.00
47726;BME280;33483;48.294;16.388;2022-09-09T06:26:41;99495.19;;;16.35;100.00
47726;BME280;33483;48.294;16.388;2022-09-09T06:29:11;99491.53;;;16.82;100.00
47726;BME280;33483;48.294;16.388;2022-09-09T06:31:39;99492.66;;;17.62;100.00
47726;BME280;33483;48.294;16.388;2022-09-09T06:34:26;99491.75;;;17.60;100.00
47726;BME280;33483;48.294;16.388;2022-09-09T06:36:58;99496.84;;;18.58;100.00
47726;BME280;33483;48.294;16.388;2022-09-09T06:39:34;99495.59;;;18.78;100.00
47726;BME280;33483;48.294;16.388;2022-09-09T06:42:03;99497.38;;;18.47;100.00
47726;BME280;33483;48.294;16.388;2022-09-09T06:44:48;99506.13;;;18.51;100.00
47726;BME280;33483;48.294;16.388;2022-09-09T06:47:27;99512.13;;;20.35;100.00
47726;BME280;33483;48.294;16.388;2022-09-09T06:49:56;99516.53;;;22.91;100.00
47726;BME280;33483;48.294;16.388;2022-09-09T06:52:24;99512.53;;;24.40;100.00
47726;BME280;33483;48.294;16.388;2022-09-09T06:54:53;99511.56;;;23.37;100.00
47726;BME280;33483;48.294;16.388;2022-09-09T06:57:22;99512.66;;;22.63;100.00
47726;BME280;33483;48.294;16.388;2022-09-09T07:00:10;99520.97;;;23.65;100.00
47726;BME280;33483;48.294;16.388;2022-09-09T07:02:39;99526.31;;;23.01;100.00
47726;BME280;33483;48.294;16.388;2022-09-09T07:05:08;99531.00;;;23.20;100.00
47726;BME280;33483;48.294;16.388;2022-09-09T07:07:36;99542.28;;;25.05;100.00
47726;BME280;33483;48.294;16.388;2022-09-09T07:10:05;99538.13;;;26.48;80.28
47726;BME280;33483;48.294;16.388;2022-09-09T07:12:38;99547.31;;;28.24;61.68
47726;BME280;33483;48.294;16.388;2022-09-09T07:15:09;99540.06;;;28.03;60.99
47726;BME280;33483;48.294;16.388;2022-09-09T07:17:40;99540.09;;;26.01;66.97
47726;BME280;33483;48.294;16.388;2022-09-09T07:20:07;99540.09;;;25.44;67.16
47726;BME280;33483;48.294;16.388;2022-09-09T07:22:35;99544.22;;;27.03;64.30
47726;BME280;33483;48.294;16.388;2022-09-09T07:25:03;99535.44;;;26.07;65.66
47726;BME280;33483;48.294;16.388;2022-09-09T07:27:33;99533.81;;;26.62;63.91
47726;BME280;33483;48.294;16.388;2022-09-09T07:30:01;99531.91;;;27.96;57.02
47726;BME280;33483;48.294;16.388;2022-09-09T07:32:38;99544.94;;;28.91;53.95
47726;BME280;33483;48.294;16.388;2022-09-09T07:35:06;99541.28;;;27.98;56.82
47726;BME280;33483;48.294;16.388;2022-09-09T07:37:38;99545.69;;;27.68;56.46
47726;BME280;33483;48.294;16.388;2022-09-09T07:40:05;99537.59;;;27.96;56.78
47726;BME280;33483;48.294;16.388;2022-09-09T07:42:33;99528.59;;;28.01;55.46
47726;BME280;33483;48.294;16.388;2022-09-09T07:45:01;99529.31;;;29.31;51.26
47726;BME280;33483;48.294;16.388;2022-09-09T07:47:31;99537.28;;;29.97;50.05
47726;BME280;33483;48.294;16.388;2022-09-09T07:49:58;99542.41;;;30.22;47.06
47726;BME280;33483;48.294;16.388;2022-09-09T07:52:30;99549.13;;;31.25;45.73
47726;BME280;33483;48.294;16.388;2022-09-09T07:55:00;99552.41;;;31.92;44.32
47726;BME280;33483;48.294;16.388;2022-09-09T07:57:30;99564.66;;;31.95;38.17
47726;BME280;33483;48.294;16.388;2022-09-09T08:00:01;99566.22;;;32.59;38.52
47726;BME280;33483;48.294;16.388;2022-09-09T08:02:38;99575.69;;;31.79;37.22
47726;BME280;33483;48.294;16.388;2022-09-09T08:05:06;99568.91;;;33.17;35.98
47726;BME280;33483;48.294;16.388;2022-09-09T08:07:34;99576.22;;;32.56;36.32
47726;BME280;33483;48.294;16.388;2022-09-09T08:10:02;99574.75;;;31.98;35.37
47726;BME280;33483;48.294;16.388;2022-09-09T08:12:31;99579.44;;;33.40;33.93
47726;BME280;33483;48.294;16.388;2022-09-09T08:15:05;99575.91;;;30.86;37.59
47726;BME280;33483;48.294;16.388;2022-09-09T08:17:33;99566.19;;;28.68;42.36
47726;BME280;33483;48.294;16.388;2022-09-09T08:20:09;99559.75;;;27.97;45.59
47726;BME280;33483;48.294;16.388;2022-09-09T08:22:38;99574.41;;;27.10;48.58
47726;BME280;33483;48.294;16.388;2022-09-09T08:25:07;99571.78;;;26.24;50.47
47726;BME280;33483;48.294;16.388;2022-09-09T08:27:36;99555.75;;;25.59;53.03
47726;BME280;33483;48.294;16.388;2022-09-09T08:30:06;99542.00;;;25.40;52.42
47726;BME280;33483;48.294;16.388;2022-09-09T08:32:36;99560.25;;;25.10;52.54
47726;BME280;33483;48.294;16.388;2022-09-09T08:35:07;99563.38;;;25.02;54.26
47726;BME280;33483;48.294;16.388;2022-09-09T08:37:35;99564.50;;;24.70;54.98
47726;BME280;33483;48.294;16.388;2022-09-09T08:40:02;99574.94;;;25.20;56.21
47726;BME280;33483;48.294;16.388;2022-09-09T08:42:49;99574.22;;;26.45;53.30
47726;BME280;33483;48.294;16.388;2022-09-09T08:45:25;99570.44;;;26.25;52.92
47726;BME280;33483;48.294;16.388;2022-09-09T08:48:17;99563.97;;;26.09;50.45
47726;BME280;33483;48.294;16.388;2022-09-09T08:50:49;99555.53;;;26.40;51.96
47726;BME280;33483;48.294;16.388;2022-09-09T08:53:30;99556.59;;;27.73;49.66
47726;BME280;33483;48.294;16.388;2022-09-09T08:56:10;99553.41;;;28.89;45.16
47726;BME280;33483;48.294;16.388;2022-09-09T08:58:48;99550.06;;;28.22;46.91
47726;BME280;33483;48.294;16.388;2022-09-09T09:04:06;99540.63;;;28.35;46.23
47726;BME280;33483;48.294;16.388;2022-09-09T09:09:31;99538.44;;;26.25;52.56
47726;BME280;33483;48.294;16.388;2022-09-09T09:12:07;99538.09;;;26.03;53.05
47726;BME280;33483;48.294;16.388;2022-09-09T09:14:37;99531.56;;;26.30;52.17
47726;BME280;33483;48.294;16.388;2022-09-09T09:17:11;99536.81;;;26.35;50.04
47726;BME280;33483;48.294;16.388;2022-09-09T09:19:40;99532.44;;;26.48;48.74
47726;BME280;33483;48.294;16.388;2022-09-09T09:25:03;99529.50;;;26.61;48.88
47726;BME280;33483;48.294;16.388;2022-09-09T09:27:47;99527.28;;;26.29;49.59
47726;BME280;33483;48.294;16.388;2022-09-09T09:32:58;99526.06;;;26.94;48.48
47726;BME280;33483;48.294;16.388;2022-09-09T09:35:28;99526.03;;;27.10;49.44
47726;BME280;33483;48.294;16.388;2022-09-09T09:37:57;99518.91;;;27.09;46.98
47726;BME280;33483;48.294;16.388;2022-09-09T09:40:50;99513.63;;;26.41;47.86
47726;BME280;33483;48.294;16.388;2022-09-09T09:43:19;99522.28;;;26.14;49.31
47726;BME280;33483;48.294;16.388;2022-09-09T09:45:47;99512.78;;;26.38;48.79
47726;BME280;33483;48.294;16.388;2022-09-09T09:48:35;99501.97;;;26.50;46.40
47726;BME280;33483;48.294;16.388;2022-09-09T09:51:07;99501.53;;;26.40;47.43
47726;BME280;33483;48.294;16.388;2022-09-09T09:53:39;99504.25;;;26.23;47.33
47726;BME280;33483;48.294;16.388;2022-09-09T09:56:11;99508.34;;;26.04;47.21
47726;BME280;33483;48.294;16.388;2022-09-09T10:01:28;99503.16;;;26.01;47.84
47726;BME280;33483;48.294;16.388;2022-09-09T10:04:12;99498.03;;;26.26;49.49
47726;BME280;33483;48.294;16.388;2022-09-09T10:06:42;99500.66;;;25.93;48.83
47726;BME280;33483;48.294;16.388;2022-09-09T10:09:22;99496.47;;;25.81;47.81
47726;BME280;33483;48.294;16.388;2022-09-09T10:14:20;99499.09;;;25.61;49.74
47726;BME280;33483;48.294;16.388;2022-09-09T10:17:05;99509.06;;;25.62;49.60
47726;BME280;33483;48.294;16.388;2022-09-09T10:19:40;99505.84;;;25.83;49.83
47726;BME280;33483;48.294;16.388;2022-09-09T10:27:15;99496.38;;;26.37;45.88
47726;BME280;33483;48.294;16.388;2022-09-09T10:33:01;99487.06;;;26.05;48.34
47726;BME280;33483;48.294;16.388;2022-09-09T10:35:49;99510.47;;;25.90;47.03
47726;BME280;33483;48.294;16.388;2022-09-09T10:51:21;99482.13;;;26.06;47.24
47726;BME280;33483;48.294;16.388;2022-09-09T10:53:52;99489.84;;;26.34;46.10
47726;BME280;33483;48.294;16.388;2022-09-09T10:56:24;99493.88;;;26.29;47.99
47726;BME280;33483;48.294;16.388;2022-09-09T10:58:53;99495.94;;;27.05;44.34
47726;BME280;33483;48.294;16.388;2022-09-09T11:01:31;99495.78;;;26.85;45.33
47726;BME280;33483;48.294;16.388;2022-09-09T11:04:10;99500.34;;;27.08;44.26
47726;BME280;33483;48.294;16.388;2022-09-09T11:06:41;99507.31;;;27.05;44.22
47726;BME280;33483;48.294;16.388;2022-09-09T11:09:15;99505.78;;;26.86;44.62
47726;BME280;33483;48.294;16.388;2022-09-09T11:14:31;99504.41;;;26.72;44.19
47726;BME280;33483;48.294;16.388;2022-09-09T11:17:06;99508.22;;;26.62;43.62
47726;BME280;33483;48.294;16.388;2022-09-09T11:19:40;99506.63;;;25.99;43.42
47726;BME280;33483;48.294;16.388;2022-09-09T11:24:59;99501.63;;;25.01;47.40
47726;BME280;33483;48.294;16.388;2022-09-09T11:27:35;99492.47;;;24.89;48.42
47726;BME280;33483;48.294;16.388;2022-09-09T11:55:47;99471.47;;;25.21;47.77
47726;BME280;33483;48.294;16.388;2022-09-09T11:58:17;99478.81;;;25.26;46.80
47726;BME280;33483;48.294;16.388;2022-09-09T12:00:50;99484.09;;;25.45;48.02
47726;BME280;33483;48.294;16.388;2022-09-09T12:03:45;99476.63;;;25.11;47.53
47726;BME280;33483;48.294;16.388;2022-09-09T12:06:31;99482.31;;;25.38;47.46
47726;BME280;33483;48.294;16.388;2022-09-09T12:11:39;99478.97;;;24.48;47.52
47726;BME280;33483;48.294;16.388;2022-09-09T12:14:23;99471.19;;;24.35;49.09
47726;BME280;33483;48.294;16.388;2022-09-09T12:19:43;99479.63;;;24.61;48.96
47726;BME280;33483;48.294;16.388;2022-09-09T12:22:24;99465.13;;;24.55;49.27
47726;BME280;33483;48.294;16.388;2022-09-09T12:25:09;99460.22;;;24.69;49.12
47726;BME280;33483;48.294;16.388;2022-09-09T12:33:34;99447.13;;;24.89;48.18
47726;BME280;33483;48.294;16.388;2022-09-09T12:36:03;99451.84;;;24.84;47.50
47726;BME280;33483;48.294;16.388;2022-09-09T12:38:36;99449.97;;;24.75;49.16
47726;BME280;33483;48.294;16.388;2022-09-09T12:41:04;99453.00;;;24.79;48.92
47726;BME280;33483;48.294;16.388;2022-09-09T12:43:32;99458.13;;;24.83;46.64
47726;BME280;33483;48.294;16.388;2022-09-09T12:46:14;99450.22;;;24.68;48.48
47726;BME280;33483;48.294;16.388;2022-09-09T12:48:45;99443.75;;;24.65;49.07
47726;BME280;33483;48.294;16.388;2022-09-09T12:51:25;99442.47;;;24.55;48.46
47726;BME280;33483;48.294;16.388;2022-09-09T12:53:54;99438.47;;;24.60;48.31
47726;BME280;33483;48.294;16.388;2022-09-09T12:56:30;99433.63;;;24.35;50.53
47726;BME280;33483;48.294;16.388;2022-09-09T12:58:58;99435.41;;;24.03;48.64
47726;BME280;33483;48.294;16.388;2022-09-09T13:01:32;99431.97;;;24.05;49.46
47726;BME280;33483;48.294;16.388;2022-09-09T13:04:19;99427.66;;;24.04;49.06
47726;BME280;33483;48.294;16.388;2022-09-09T13:06:50;99421.16;;;24.01;49.12
47726;BME280;33483;48.294;16.388;2022-09-09T13:09:19;99423.56;;;23.82;49.63
47726;BME280;33483;48.294;16.388;2022-09-09T13:11:54;99424.19;;;23.80;48.14
47726;BME280;33483;48.294;16.388;2022-09-09T13:14:29;99411.06;;;23.73;48.26
47726;BME280;33483;48.294;16.388;2022-09-09T13:17:00;99413.72;;;23.58;50.28
47726;BME280;33483;48.294;16.388;2022-09-09T13:19:32;99400.97;;;23.45;50.12
47726;BME280;33483;48.294;16.388;2022-09-09T13:24:46;99393.78;;;23.30;49.81
47726;BME280;33483;48.294;16.388;2022-09-09T13:29:58;99383.13;;;23.06;51.87
47726;BME280;33483;48.294;16.388;2022-09-09T13:32:27;99383.91;;;22.95;52.15
47726;BME280;33483;48.294;16.388;2022-09-09T13:35:02;99380.22;;;22.92;51.77
47726;BME280;33483;48.294;16.388;2022-09-09T13:37:37;99384.41;;;22.91;52.13
47726;BME280;33483;48.294;16.388;2022-09-09T13:40:06;99390.91;;;22.82;52.39
47726;BME280;33483;48.294;16.388;2022-09-09T13:42:39;99395.34;;;22.74;52.21
47726;BME280;33483;48.294;16.388;2022-09-09T13:45:22;99402.63;;;22.65;52.78
47726;BME280;33483;48.294;16.388;2022-09-09T13:47:55;99396.75;;;22.61;52.81
47726;BME280;33483;48.294;16.388;2022-09-09T13:50:25;99400.28;;;22.62;53.71
47726;BME280;33483;48.294;16.388;2022-09-09T13:52:58;99403.63;;;22.70;52.78
47726;BME280;33483;48.294;16.388;2022-09-09T13:55:29;99388.13;;;22.71;52.95
47726;BME280;33483;48.294;16.388;2022-09-09T13:58:01;99390.94;;;22.71;53.66
47726;BME280;33483;48.294;16.388;2022-09-09T14:00:32;99378.41;;;22.74;53.88
47726;BME280;33483;48.294;16.388;2022-09-09T14:03:00;99388.13;;;22.71;54.72
47726;BME280;33483;48.294;16.388;2022-09-09T14:05:32;99380.13;;;22.67;55.50
47726;BME280;33483;48.294;16.388;2022-09-09T14:08:00;99373.28;;;22.59;57.75
47726;BME280;33483;48.294;16.388;2022-09-09T14:10:31;99384.78;;;22.51;59.22
47726;BME280;33483;48.294;16.388;2022-09-09T14:12:58;99385.28;;;22.48;58.98
47726;BME280;33483;48.294;16.388;2022-09-09T14:15:29;99383.44;;;22.41;59.93
47726;BME280;33483;48.294;16.388;2022-09-09T14:17:59;99381.84;;;22.38;60.47
47726;BME280;33483;48.294;16.388;2022-09-09T14:20:30;99381.50;;;22.31;61.29
47726;BME280;33483;48.294;16.388;2022-09-09T14:22:57;99400.38;;;22.29;61.92
47726;BME280;33483;48.294;16.388;2022-09-09T14:25:30;99396.69;;;22.26;64.32
47726;BME280;33483;48.294;16.388;2022-09-09T14:27:58;99394.47;;;22.13;68.54
47726;BME280;33483;48.294;16.388;2022-09-09T14:30:25;99398.63;;;21.89;74.41
47726;BME280;33483;48.294;16.388;2022-09-09T14:32:58;99404.25;;;21.57;83.41
47726;BME280;33483;48.294;16.388;2022-09-09T14:35:25;99402.06;;;21.34;90.42
47726;BME280;33483;48.294;16.388;2022-09-09T14:37:57;99408.41;;;21.23;96.72
47726;BME280;33483;48.294;16.388;2022-09-09T14:40:25;99415.91;;;21.09;100.00
47726;BME280;33483;48.294;16.388;2022-09-09T14:42:53;99413.91;;;20.90;100.00
47726;BME280;33483;48.294;16.388;2022-09-09T14:45:21;99408.75;;;20.66;100.00
47726;BME280;33483;48.294;16.388;2022-09-09T14:47:49;99414.09;;;20.62;100.00
47726;BME280;33483;48.294;16.388;2022-09-09T14:50:16;99413.72;;;20.46;100.00
47726;BME280;33483;48.294;16.388;2022-09-09T14:52:47;99413.34;;;20.31;100.00
47726;BME280;33483;48.294;16.388;2022-09-09T14:55:14;99405.38;;;20.17;100.00
47726;BME280;33483;48.294;16.388;2022-09-09T14:57:42;99403.94;;;20.17;100.00
47726;BME280;33483;48.294;16.388;2022-09-09T15:00:12;99400.69;;;20.01;100.00
47726;BME280;33483;48.294;16.388;2022-09-09T15:02:40;99395.69;;;19.90;100.00
47726;BME280;33483;48.294;16.388;2022-09-09T15:05:08;99401.34;;;19.80;100.00
47726;BME280;33483;48.294;16.388;2022-09-09T15:07:36;99396.88;;;19.77;100.00
47726;BME280;33483;48.294;16.388;2022-09-09T15:10:05;99395.31;;;19.65;100.00
47726;BME280;33483;48.294;16.388;2022-09-09T15:12:33;99393.06;;;19.63;100.00
47726;BME280;33483;48.294;16.388;2022-09-09T15:15:02;99397.81;;;19.61;100.00